Time;durP1;ratioP1;P1;durP2;ratioP2;P2;SDS_P1;SDS_P2;PMS_P1;PMS_P2;Temp;Humidity;BMP_temperature;BMP_pressure;BME280_temperature;BME280_humidity;BME280_pressure;Samples;Min_cycle;Max_cycle;Signal;HPM_P1;HPM_P2
2022/01/10 00:02:13;;;;;;;70.47;11.25;;;;;;;;;;5115150;28;20724;-67
2022/01/10 00:04:40;;;;;;;67.57;9.68;;;;;;;;;;5115537;28;20303;-67
2022/01/10 00:07:07;;;;;;;67.40;10.20;;;;;;;;;;5115014;28;20250;-67
2022/01/10 00:09:35;;;;;;;67.07;9.52;;;;;;;;;;5114947;28;20764;-67
2022/01/10 00:12:02;;;;;;;70.70;9.40;;;;;;;;;;5115331;28;20220;-67
2022/01/10 00:14:29;;;;;;;68.63;10.18;;;;;;;;;;5115050;28;20204;-67
2022/01/10 00:16:57;;;;;;;67.20;9.80;;;;;;;;;;5115265;28;20206;-67
2022/01/10 00:19:25;;;;;;;65.65;8.20;;;;;;;;;;5114900;28;20208;-67
2022/01/10 00:21:52;;;;;;;70.18;8.85;;;;;;;;;;5114827;28;20228;-66
2022/01/10 00:24:19;;;;;;;66.50;8.95;;;;;;;;;;5114945;28;20200;-67
2022/01/10 00:26:46;;;;;;;66.47;8.80;;;;;;;;;;5114778;28;20228;-67
2022/01/10 00:29:13;;;;;;;67.07;9.07;;;;;;;;;;5114896;28;20290;-67
2022/01/10 00:31:41;;;;;;;65.95;8.00;;;;;;;;;;5112559;28;20233;-67
2022/01/10 00:34:10;;;;;;;70.65;8.60;;;;;;;;;;5114792;28;20432;-67
2022/01/10 00:36:37;;;;;;;70.90;8.77;;;;;;;;;;5113893;28;20207;-67
2022/01/10 00:39:05;;;;;;;65.07;8.45;;;;;;;;;;5114249;28;20699;-67
2022/01/10 00:41:32;;;;;;;64.72;7.63;;;;;;;;;;5114440;28;20595;-67
2022/01/10 00:44:01;;;;;;;64.88;8.43;;;;;;;;;;5114258;28;20201;-67
2022/01/10 00:46:28;;;;;;;64.50;8.32;;;;;;;;;;5114437;27;20228;-67
2022/01/10 00:48:56;;;;;;;65.50;8.15;;;;;;;;;;5114422;28;20227;-67
2022/01/10 00:51:24;;;;;;;70.80;9.20;;;;;;;;;;5114325;28;20225;-67
2022/01/10 00:53:52;;;;;;;66.78;8.77;;;;;;;;;;5114220;28;20204;-66
2022/01/10 00:56:19;;;;;;;64.05;8.15;;;;;;;;;;5114332;28;20673;-67
2022/01/10 00:58:47;;;;;;;67.90;8.75;;;;;;;;;;5114282;28;20204;-66
2022/01/10 01:01:14;;;;;;;66.93;9.00;;;;;;;;;;5114204;28;20224;-67
2022/01/10 01:03:41;;;;;;;64.53;8.40;;;;;;;;;;5112412;28;20235;-67
2022/01/10 01:06:10;;;;;;;67.32;8.90;;;;;;;;;;5114467;28;20228;-67
2022/01/10 01:08:39;;;;;;;65.88;9.05;;;;;;;;;;5113619;28;20232;-67
2022/01/10 01:13:54;;;;;;;65.85;8.75;;;;;;;;;;5114411;28;20198;-67
2022/01/10 01:16:42;;;;;;;70.70;8.27;;;;;;;;;;5114342;28;20695;-67
2022/01/10 01:24:51;;;;;;;66.47;8.45;;;;;;;;;;5076811;28;20200;-67
2022/01/10 01:27:18;;;;;;;70.75;9.25;;;;;;;;;;5113660;27;20319;-67
2022/01/10 01:29:45;;;;;;;68.07;9.88;;;;;;;;;;5114017;28;20561;-67
2022/01/10 01:32:12;;;;;;;69.03;8.35;;;;;;;;;;5114497;28;20228;-67
2022/01/10 01:34:40;;;;;;;69.47;9.05;;;;;;;;;;5103205;28;20240;-66
2022/01/10 01:37:09;;;;;;;66.13;9.13;;;;;;;;;;5093479;28;20204;-67
2022/01/10 01:39:36;;;;;;;69.68;10.65;;;;;;;;;;5093368;28;20205;-67
2022/01/10 01:42:17;;;;;;;65.53;8.68;;;;;;;;;;5093709;28;20225;-67
2022/01/10 01:44:44;;;;;;;65.45;9.55;;;;;;;;;;5093619;28;20696;-66
2022/01/10 01:47:12;;;;;;;63.78;9.13;;;;;;;;;;5092273;28;20315;-67
2022/01/10 01:49:39;;;;;;;69.80;10.40;;;;;;;;;;5093115;28;20291;-67
2022/01/10 01:52:06;;;;;;;66.40;10.13;;;;;;;;;;5092958;28;20336;-67
2022/01/10 01:54:33;;;;;;;69.97;10.80;;;;;;;;;;5093012;28;20292;-67
2022/01/10 01:57:00;;;;;;;67.10;9.20;;;;;;;;;;5092559;28;20209;-66
2022/01/10 01:59:29;;;;;;;65.15;9.52;;;;;;;;;;5092836;28;20232;-67
2022/01/10 02:01:57;;;;;;;71.65;9.30;;;;;;;;;;5092775;28;20514;-66
2022/01/10 02:04:24;;;;;;;67.20;9.85;;;;;;;;;;5092843;28;20622;-67
2022/01/10 02:06:51;;;;;;;66.25;8.48;;;;;;;;;;5106909;28;20224;-66
2022/01/10 02:09:19;;;;;;;67.47;9.25;;;;;;;;;;5112268;28;20216;-67
2022/01/10 02:11:46;;;;;;;67.80;9.27;;;;;;;;;;5113231;28;20311;-67
2022/01/10 02:14:13;;;;;;;67.35;9.73;;;;;;;;;;5112738;28;20291;-66
2022/01/10 02:16:56;;;;;;;69.15;9.18;;;;;;;;;;5112803;28;20226;-67
2022/01/10 02:19:25;;;;;;;67.13;9.60;;;;;;;;;;5068618;28;20205;-66
2022/01/10 02:21:54;;;;;;;67.32;10.35;;;;;;;;;;5069818;28;20332;-67
2022/01/10 02:24:23;;;;;;;68.78;9.20;;;;;;;;;;5069857;28;20667;-67
2022/01/10 02:26:51;;;;;;;72.03;8.45;;;;;;;;;;5070420;28;20279;-67
2022/01/10 02:29:18;;;;;;;66.68;10.13;;;;;;;;;;5069986;28;20231;-67
2022/01/10 02:31:46;;;;;;;65.38;8.65;;;;;;;;;;5070218;28;20608;-66
2022/01/10 02:34:16;;;;;;;66.05;8.68;;;;;;;;;;5069807;28;20205;-67
2022/01/10 02:36:43;;;;;;;67.68;9.45;;;;;;;;;;5068353;28;20300;-67
2022/01/10 02:39:12;;;;;;;64.97;8.90;;;;;;;;;;5069459;28;20205;-66
2022/01/10 02:41:40;;;;;;;70.25;10.63;;;;;;;;;;5069538;28;20781;-67
2022/01/10 02:44:08;;;;;;;68.88;9.07;;;;;;;;;;5069131;28;20297;-67
2022/01/10 02:46:36;;;;;;;68.32;10.20;;;;;;;;;;5069347;28;20209;-67
2022/01/10 02:49:08;;;;;;;68.20;9.23;;;;;;;;;;5069858;28;20202;-67
2022/01/10 02:51:35;;;;;;;67.13;9.48;;;;;;;;;;5112395;28;20645;-67
2022/01/10 02:54:03;;;;;;;67.05;10.20;;;;;;;;;;5112459;28;20314;-66
2022/01/10 02:56:31;;;;;;;68.10;9.63;;;;;;;;;;5112219;28;20211;-67
2022/01/10 02:58:58;;;;;;;67.05;10.55;;;;;;;;;;5113364;28;20223;-67
2022/01/10 03:01:25;;;;;;;67.07;10.40;;;;;;;;;;5116673;28;20226;-67
2022/01/10 03:03:53;;;;;;;70.25;9.18;;;;;;;;;;5116513;28;20219;-66
2022/01/10 03:06:20;;;;;;;66.35;9.68;;;;;;;;;;5116286;28;20204;-67
2022/01/10 03:08:47;;;;;;;67.15;9.40;;;;;;;;;;5111046;28;20233;-67
2022/01/10 03:11:14;;;;;;;67.50;9.00;;;;;;;;;;5095841;28;20251;-67
2022/01/10 03:13:43;;;;;;;70.88;9.18;;;;;;;;;;5095841;28;20212;-67
2022/01/10 03:16:10;;;;;;;64.28;8.93;;;;;;;;;;5096359;28;20226;-67
2022/01/10 03:18:37;;;;;;;70.30;9.75;;;;;;;;;;5095643;28;20740;-66
2022/01/10 03:21:04;;;;;;;68.75;9.98;;;;;;;;;;5096122;28;20226;-66
2022/01/10 03:23:31;;;;;;;70.13;9.32;;;;;;;;;;5095674;28;20201;-67
2022/01/10 03:25:58;;;;;;;65.88;9.80;;;;;;;;;;5098423;28;20209;-67
2022/01/10 03:28:26;;;;;;;69.03;10.65;;;;;;;;;;5096180;28;20229;-67
2022/01/10 03:30:54;;;;;;;66.90;10.23;;;;;;;;;;5096232;28;20259;-66
2022/01/10 03:33:21;;;;;;;66.18;10.05;;;;;;;;;;5095961;28;20291;-66
2022/01/10 03:35:49;;;;;;;68.43;9.40;;;;;;;;;;5096013;28;20676;-67
2022/01/10 03:38:16;;;;;;;68.10;9.52;;;;;;;;;;5095385;28;20295;-67
2022/01/10 03:40:44;;;;;;;65.50;9.75;;;;;;;;;;5094237;28;20201;-67
2022/01/10 03:43:11;;;;;;;70.55;10.93;;;;;;;;;;5096061;28;20231;-67
2022/01/10 03:45:38;;;;;;;70.05;9.50;;;;;;;;;;5095906;28;20212;-67
2022/01/10 03:48:06;;;;;;;65.78;9.02;;;;;;;;;;5095158;28;20224;-67
2022/01/10 03:50:34;;;;;;;67.47;9.35;;;;;;;;;;5095933;28;20259;-66
2022/01/10 03:53:01;;;;;;;68.13;9.75;;;;;;;;;;5095066;28;20231;-67
2022/01/10 03:55:28;;;;;;;72.05;10.32;;;;;;;;;;5095612;28;20211;-67
2022/01/10 03:57:55;;;;;;;66.47;9.63;;;;;;;;;;5095246;28;20204;-67
2022/01/10 04:00:22;;;;;;;66.43;10.07;;;;;;;;;;5095325;28;20207;-67
2022/01/10 04:02:55;;;;;;;67.95;9.82;;;;;;;;;;5095200;28;20231;-67
2022/01/10 04:05:23;;;;;;;73.53;9.88;;;;;;;;;;5094886;28;20643;-67
2022/01/10 04:07:50;;;;;;;67.65;10.02;;;;;;;;;;5094696;28;20224;-67
2022/01/10 04:10:17;;;;;;;66.35;10.50;;;;;;;;;;5094275;28;20580;-67
2022/01/10 04:12:44;;;;;;;68.50;9.55;;;;;;;;;;5103892;28;20315;-67
2022/01/10 04:15:12;;;;;;;69.07;10.00;;;;;;;;;;5115204;28;20587;-67
2022/01/10 04:17:39;;;;;;;70.45;9.80;;;;;;;;;;5114896;28;20195;-67
2022/01/10 04:20:07;;;;;;;66.00;9.85;;;;;;;;;;5115193;28;20299;-66
2022/01/10 04:22:36;;;;;;;66.03;9.95;;;;;;;;;;5115261;28;20606;-67
2022/01/10 04:25:04;;;;;;;68.53;10.43;;;;;;;;;;5115336;28;20208;-67
2022/01/10 04:27:32;;;;;;;66.82;10.00;;;;;;;;;;5114745;28;20224;-67
2022/01/10 04:29:59;;;;;;;68.53;10.13;;;;;;;;;;5115008;28;20214;-67
2022/01/10 04:32:29;;;;;;;68.65;9.95;;;;;;;;;;5114614;28;20251;-67
2022/01/10 04:34:56;;;;;;;67.75;9.88;;;;;;;;;;5115160;28;20211;-66
2022/01/10 04:37:24;;;;;;;68.70;9.55;;;;;;;;;;5114480;28;20215;-67
2022/01/10 04:39:52;;;;;;;66.95;9.68;;;;;;;;;;5115073;28;20210;-66
2022/01/10 04:42:20;;;;;;;67.38;9.70;;;;;;;;;;5114595;28;20319;-65
2022/01/10 04:44:49;;;;;;;66.95;10.13;;;;;;;;;;5096094;28;20227;-67
2022/01/10 04:47:17;;;;;;;69.07;10.35;;;;;;;;;;5094218;28;20208;-67
2022/01/10 04:50:04;;;;;;;67.03;10.07;;;;;;;;;;5094549;28;20291;-68
2022/01/10 04:52:32;;;;;;;66.28;9.40;;;;;;;;;;5094161;28;20225;-66
2022/01/10 04:55:00;;;;;;;68.35;9.95;;;;;;;;;;5094057;28;20212;-67
2022/01/10 04:57:28;;;;;;;67.97;11.63;;;;;;;;;;5093886;28;20201;-67
2022/01/10 04:59:55;;;;;;;66.85;9.55;;;;;;;;;;5094147;28;20207;-67
2022/01/10 05:02:22;;;;;;;65.03;8.77;;;;;;;;;;5094117;28;20716;-67
2022/01/10 05:04:50;;;;;;;68.10;11.32;;;;;;;;;;5094672;28;20234;-67
2022/01/10 05:07:17;;;;;;;71.72;10.88;;;;;;;;;;5097207;28;20295;-67
2022/01/10 05:09:44;;;;;;;67.95;11.07;;;;;;;;;;5093794;28;20308;-67
2022/01/10 05:12:13;;;;;;;71.80;10.32;;;;;;;;;;5093471;28;20228;-67
2022/01/10 05:14:40;;;;;;;67.53;10.75;;;;;;;;;;5098001;28;20224;-67
2022/01/10 05:17:07;;;;;;;69.88;11.48;;;;;;;;;;5113877;28;20204;-67
2022/01/10 05:19:34;;;;;;;66.57;9.45;;;;;;;;;;5113947;28;20212;-67
2022/01/10 05:22:02;;;;;;;69.10;10.77;;;;;;;;;;5113876;28;20759;-67
2022/01/10 05:24:29;;;;;;;66.65;10.00;;;;;;;;;;5120294;28;20295;-67
2022/01/10 05:26:56;;;;;;;67.15;11.05;;;;;;;;;;5123222;28;20239;-66
2022/01/10 05:29:24;;;;;;;74.13;12.15;;;;;;;;;;5122503;28;20234;-68
2022/01/10 05:31:52;;;;;;;67.60;10.82;;;;;;;;;;5122630;28;20228;-67
2022/01/10 05:34:19;;;;;;;69.60;10.20;;;;;;;;;;5121711;28;20235;-66
2022/01/10 05:36:46;;;;;;;68.35;10.35;;;;;;;;;;5119547;28;20239;-67
2022/01/10 05:39:13;;;;;;;66.43;11.07;;;;;;;;;;5112837;27;20673;-67
2022/01/10 05:41:41;;;;;;;66.43;10.45;;;;;;;;;;5113375;28;20603;-66
2022/01/10 05:44:08;;;;;;;75.13;10.65;;;;;;;;;;5113360;28;20200;-67
2022/01/10 05:46:38;;;;;;;66.53;10.05;;;;;;;;;;5099185;28;20215;-67
2022/01/10 05:49:07;;;;;;;74.50;15.57;;;;;;;;;;5092328;28;20228;-67
2022/01/10 05:51:36;;;;;;;77.57;14.40;;;;;;;;;;5092716;28;20232;-67
2022/01/10 05:54:03;;;;;;;75.22;13.77;;;;;;;;;;5093005;28;20227;-67
2022/01/10 05:56:30;;;;;;;67.78;10.60;;;;;;;;;;5092802;28;20233;-67
2022/01/10 05:58:57;;;;;;;71.05;11.30;;;;;;;;;;5092481;28;20222;-67
2022/01/10 06:01:24;;;;;;;71.03;12.13;;;;;;;;;;5092289;28;20453;-67
2022/01/10 06:03:53;;;;;;;70.68;12.07;;;;;;;;;;5092459;28;20204;-67
2022/01/10 06:06:20;;;;;;;72.38;13.05;;;;;;;;;;5092197;28;20311;-67
2022/01/10 06:08:48;;;;;;;69.63;11.25;;;;;;;;;;5092028;28;20316;-67
2022/01/10 06:11:15;;;;;;;70.22;12.65;;;;;;;;;;5092379;28;20315;-67
2022/01/10 06:13:42;;;;;;;69.90;10.77;;;;;;;;;;5092405;28;20219;-67
2022/01/10 06:16:09;;;;;;;66.95;11.88;;;;;;;;;;5092105;28;20300;-67
2022/01/10 06:18:37;;;;;;;72.57;12.20;;;;;;;;;;5090718;28;20288;-64
2022/01/10 06:21:05;;;;;;;70.75;10.75;;;;;;;;;;5092265;28;20233;-68
2022/01/10 06:23:32;;;;;;;68.35;11.63;;;;;;;;;;5092262;28;20588;-67
2022/01/10 06:25:59;;;;;;;68.43;10.98;;;;;;;;;;5092107;28;20699;-66
2022/01/10 06:28:27;;;;;;;67.78;11.25;;;;;;;;;;5091757;28;20658;-66
2022/01/10 06:30:54;;;;;;;70.22;10.80;;;;;;;;;;5091966;28;20220;-67
2022/01/10 06:33:21;;;;;;;69.43;11.23;;;;;;;;;;5091226;28;20204;-67
2022/01/10 06:35:48;;;;;;;68.70;11.63;;;;;;;;;;5092306;28;20312;-67
2022/01/10 06:38:16;;;;;;;67.57;10.90;;;;;;;;;;5092009;28;20244;-67
2022/01/10 06:40:44;;;;;;;70.22;11.15;;;;;;;;;;5092550;28;20232;-67
2022/01/10 06:43:11;;;;;;;70.32;11.27;;;;;;;;;;5091910;28;20200;-67
2022/01/10 06:45:38;;;;;;;70.22;11.55;;;;;;;;;;5092584;28;20579;-67
2022/01/10 06:48:06;;;;;;;75.07;12.50;;;;;;;;;;5092029;28;20225;-67
2022/01/10 06:50:33;;;;;;;71.85;12.60;;;;;;;;;;5112107;28;20210;-67
2022/01/10 06:53:00;;;;;;;76.03;12.30;;;;;;;;;;5112290;28;20254;-67
2022/01/10 06:55:29;;;;;;;73.00;12.60;;;;;;;;;;5112312;28;20269;-67
2022/01/10 06:57:56;;;;;;;67.10;11.30;;;;;;;;;;5111957;28;20579;-67
2022/01/10 07:00:23;;;;;;;75.80;12.57;;;;;;;;;;5111874;28;20207;-67
2022/01/10 07:02:50;;;;;;;73.03;13.00;;;;;;;;;;5112157;28;20666;-67
2022/01/10 07:05:17;;;;;;;68.90;11.68;;;;;;;;;;5112224;28;20200;-67
2022/01/10 07:07:45;;;;;;;71.82;11.80;;;;;;;;;;5111531;28;20219;-67
2022/01/10 07:10:12;;;;;;;72.25;12.90;;;;;;;;;;5112226;28;20630;-67
2022/01/10 07:12:41;;;;;;;74.30;12.05;;;;;;;;;;5112098;28;20319;-67
2022/01/10 07:15:09;;;;;;;71.55;12.52;;;;;;;;;;5112128;28;20707;-67
2022/01/10 07:17:36;;;;;;;69.35;10.75;;;;;;;;;;5111682;28;20213;-67
2022/01/10 07:20:03;;;;;;;68.50;11.27;;;;;;;;;;5110382;28;20287;-67
2022/01/10 07:22:31;;;;;;;69.88;12.50;;;;;;;;;;5111769;28;20315;-67
2022/01/10 07:24:58;;;;;;;69.35;11.38;;;;;;;;;;5112262;28;20210;-67
2022/01/10 07:27:25;;;;;;;68.20;11.25;;;;;;;;;;5111763;28;20207;-67
2022/01/10 07:29:54;;;;;;;68.63;10.90;;;;;;;;;;5112477;28;20224;-67
2022/01/10 07:32:21;;;;;;;73.88;12.00;;;;;;;;;;5112121;28;20311;-67
2022/01/10 07:34:48;;;;;;;69.65;12.38;;;;;;;;;;5112139;28;20211;-67
2022/01/10 07:37:18;;;;;;;71.13;12.77;;;;;;;;;;5112125;28;20622;-66
2022/01/10 07:39:45;;;;;;;76.75;14.35;;;;;;;;;;5112495;28;20200;-67
2022/01/10 07:42:12;;;;;;;78.43;13.48;;;;;;;;;;5112154;28;20315;-67
2022/01/10 07:44:39;;;;;;;70.57;11.93;;;;;;;;;;5112711;28;20291;-66
2022/01/10 07:47:08;;;;;;;75.97;12.60;;;;;;;;;;5115573;28;20294;-66
2022/01/10 07:49:36;;;;;;;72.85;13.60;;;;;;;;;;5117565;28;20319;-67
2022/01/10 07:52:03;;;;;;;72.60;12.52;;;;;;;;;;5116864;28;20256;-66
2022/01/10 07:54:30;;;;;;;71.45;12.52;;;;;;;;;;5097899;28;20577;-67
2022/01/10 07:56:58;;;;;;;75.13;14.23;;;;;;;;;;5098513;28;20268;-67
2022/01/10 07:59:25;;;;;;;70.95;12.85;;;;;;;;;;5098090;28;20216;-67
2022/01/10 08:01:53;;;;;;;76.95;12.90;;;;;;;;;;5099051;28;20225;-67
2022/01/10 08:04:21;;;;;;;75.47;14.07;;;;;;;;;;5098140;28;20296;-65
2022/01/10 08:06:48;;;;;;;74.45;12.35;;;;;;;;;;5097990;28;20201;-65
2022/01/10 08:09:16;;;;;;;72.38;12.10;;;;;;;;;;5097118;28;20781;-66
2022/01/10 08:11:43;;;;;;;70.60;12.30;;;;;;;;;;5097920;28;20316;-65
2022/01/10 08:14:10;;;;;;;79.20;13.73;;;;;;;;;;5098043;28;20212;-66
2022/01/10 08:16:37;;;;;;;72.53;12.60;;;;;;;;;;5097781;28;20301;-65
2022/01/10 08:19:06;;;;;;;80.80;12.80;;;;;;;;;;5098064;28;20235;-66
2022/01/10 08:21:34;;;;;;;82.60;13.02;;;;;;;;;;5097755;28;20229;-66
2022/01/10 08:24:01;;;;;;;72.80;12.55;;;;;;;;;;5103185;28;20315;-65
2022/01/10 08:26:28;;;;;;;73.53;13.60;;;;;;;;;;5118535;28;20208;-66
2022/01/10 08:28:56;;;;;;;71.63;12.20;;;;;;;;;;5117922;28;20234;-66
2022/01/10 08:31:23;;;;;;;78.93;12.25;;;;;;;;;;5117865;28;20228;-65
2022/01/10 08:33:50;;;;;;;70.80;11.30;;;;;;;;;;5117878;28;20299;-65
2022/01/10 08:36:18;;;;;;;75.63;11.27;;;;;;;;;;5118772;28;20251;-66
2022/01/10 08:38:46;;;;;;;70.10;10.68;;;;;;;;;;5118165;27;20196;-66
2022/01/10 08:41:13;;;;;;;69.72;11.02;;;;;;;;;;5118714;28;20220;-66
2022/01/10 08:43:40;;;;;;;72.28;10.40;;;;;;;;;;5118882;28;20601;-65
2022/01/10 08:46:08;;;;;;;69.22;8.95;;;;;;;;;;5118687;28;20292;-65
2022/01/10 08:48:35;;;;;;;69.82;10.50;;;;;;;;;;5116155;28;20224;-65
2022/01/10 08:51:02;;;;;;;75.10;11.45;;;;;;;;;;5118591;28;20316;-66
2022/01/10 08:53:29;;;;;;;68.28;10.40;;;;;;;;;;5118146;28;20646;-65
2022/01/10 08:55:57;;;;;;;70.15;10.60;;;;;;;;;;5116220;28;20236;-65
2022/01/10 08:58:26;;;;;;;67.35;9.68;;;;;;;;;;5117926;28;20208;-65
2022/01/10 09:00:54;;;;;;;68.55;10.82;;;;;;;;;;5117506;28;20496;-65
2022/01/10 09:03:21;;;;;;;74.47;10.70;;;;;;;;;;5117441;28;20204;-66
2022/01/10 09:05:49;;;;;;;68.75;11.50;;;;;;;;;;5117467;28;20215;-66
2022/01/10 09:08:16;;;;;;;67.50;10.05;;;;;;;;;;5116788;28;20267;-66
2022/01/10 09:10:43;;;;;;;73.07;11.60;;;;;;;;;;5116868;28;20700;-66
2022/01/10 09:13:11;;;;;;;73.65;10.48;;;;;;;;;;5116874;28;20231;-65
2022/01/10 09:15:38;;;;;;;72.72;12.02;;;;;;;;;;5116888;28;20211;-65
2022/01/10 09:18:06;;;;;;;83.22;11.38;;;;;;;;;;5116222;28;20208;-66
2022/01/10 09:20:33;;;;;;;75.45;9.75;;;;;;;;;;5117014;28;20212;-66
2022/01/10 09:23:00;;;;;;;71.13;10.70;;;;;;;;;;5116843;28;20223;-65
2022/01/10 09:25:27;;;;;;;70.07;10.70;;;;;;;;;;5117295;28;20204;-65
2022/01/10 09:27:55;;;;;;;77.97;11.82;;;;;;;;;;5094687;28;20258;-66
2022/01/10 09:30:23;;;;;;;71.88;10.50;;;;;;;;;;5095989;28;20243;-66
2022/01/10 09:32:53;;;;;;;71.10;10.60;;;;;;;;;;5096657;28;20224;-65
2022/01/10 09:35:20;;;;;;;73.55;11.30;;;;;;;;;;5096238;28;20213;-65
2022/01/10 09:37:47;;;;;;;70.80;10.27;;;;;;;;;;5095741;28;20672;-65
2022/01/10 09:40:15;;;;;;;73.43;11.60;;;;;;;;;;5095359;28;20197;-66
2022/01/10 09:42:42;;;;;;;68.65;10.35;;;;;;;;;;5096049;28;20256;-66
2022/01/10 09:45:10;;;;;;;68.03;8.93;;;;;;;;;;5096361;28;20244;-65
2022/01/10 09:47:39;;;;;;;72.43;11.05;;;;;;;;;;5095032;28;20244;-65
2022/01/10 09:50:07;;;;;;;72.30;10.98;;;;;;;;;;5096417;28;20225;-66
2022/01/10 09:52:35;;;;;;;74.63;11.13;;;;;;;;;;5096106;28;20643;-65
2022/01/10 09:55:03;;;;;;;68.07;10.77;;;;;;;;;;5096343;28;20232;-66
2022/01/10 09:57:30;;;;;;;68.38;9.95;;;;;;;;;;5094157;28;20221;-67
2022/01/10 09:59:57;;;;;;;70.80;9.32;;;;;;;;;;5095962;28;20272;-66
2022/01/10 10:02:30;;;;;;;68.72;10.65;;;;;;;;;;5096564;28;20231;-66
2022/01/10 10:04:59;;;;;;;71.80;10.82;;;;;;;;;;5096796;28;20263;-66
2022/01/10 10:07:26;;;;;;;68.47;9.93;;;;;;;;;;5096699;28;20690;-66
2022/01/10 10:09:57;;;;;;;68.00;9.55;;;;;;;;;;5094567;28;20481;-67
2022/01/10 10:12:28;;;;;;;71.05;10.05;;;;;;;;;;5094398;28;20271;-67
2022/01/10 10:14:56;;;;;;;68.60;9.53;;;;;;;;;;5095765;28;20232;-66
2022/01/10 10:17:23;;;;;;;66.43;9.07;;;;;;;;;;5095502;28;20511;-66
2022/01/10 10:19:51;;;;;;;66.77;9.80;;;;;;;;;;5095879;28;20451;-66
2022/01/10 10:22:20;;;;;;;72.33;9.67;;;;;;;;;;5094902;28;20565;-66
2022/01/10 10:24:48;;;;;;;69.47;9.57;;;;;;;;;;5094399;28;20447;-66
2022/01/10 10:27:16;;;;;;;68.43;9.93;;;;;;;;;;5094643;28;20470;-66
2022/01/10 10:29:44;;;;;;;68.90;10.70;;;;;;;;;;5102833;28;20489;-67
2022/01/10 10:32:15;;;;;;;70.90;10.00;;;;;;;;;;5115956;28;20842;-66
2022/01/10 10:34:42;;;;;;;65.70;8.33;;;;;;;;;;5116259;28;20442;-66
2022/01/10 10:37:10;;;;;;;66.97;8.60;;;;;;;;;;5116524;28;20529;-66
2022/01/10 10:39:40;;;;;;;68.77;9.07;;;;;;;;;;5116614;28;20438;-65
2022/01/10 10:42:08;;;;;;;73.27;9.07;;;;;;;;;;5116295;28;20894;-65
2022/01/10 10:44:35;;;;;;;66.00;8.90;;;;;;;;;;5116416;28;20450;-65
2022/01/10 10:47:03;;;;;;;65.37;9.10;;;;;;;;;;5116598;28;20453;-65
2022/01/10 10:49:34;;;;;;;63.27;7.27;;;;;;;;;;5115932;28;20482;-65
2022/01/10 10:52:01;;;;;;;66.60;8.93;;;;;;;;;;5116345;28;20531;-65
2022/01/10 10:54:31;;;;;;;67.47;8.97;;;;;;;;;;5116092;28;20525;-66
2022/01/10 10:57:00;;;;;;;65.97;7.40;;;;;;;;;;5116418;28;20486;-66
2022/01/10 10:59:29;;;;;;;67.10;8.13;;;;;;;;;;5116300;28;20523;-65
2022/01/10 11:01:57;;;;;;;66.60;7.80;;;;;;;;;;5099773;28;20573;-66
2022/01/10 11:04:24;;;;;;;68.53;8.60;;;;;;;;;;5095611;28;20867;-65
2022/01/10 11:06:51;;;;;;;68.83;8.90;;;;;;;;;;5095728;28;20896;-66
2022/01/10 11:09:19;;;;;;;66.10;8.20;;;;;;;;;;5095100;28;20577;-66
2022/01/10 11:11:46;;;;;;;67.50;8.50;;;;;;;;;;5095032;28;20471;-65
2022/01/10 11:14:16;;;;;;;70.07;8.17;;;;;;;;;;5094679;28;20450;-66
2022/01/10 11:16:45;;;;;;;71.97;9.20;;;;;;;;;;5095034;28;20829;-66
2022/01/10 11:19:12;;;;;;;67.40;8.17;;;;;;;;;;5094558;28;20453;-65
2022/01/10 11:21:41;;;;;;;65.73;8.10;;;;;;;;;;5099113;28;20553;-66
2022/01/10 11:24:08;;;;;;;70.67;9.03;;;;;;;;;;5098952;28;20458;-65
2022/01/10 11:26:38;;;;;;;65.30;8.43;;;;;;;;;;5099006;28;20560;-66
2022/01/10 11:29:07;;;;;;;65.27;8.60;;;;;;;;;;5098249;28;20454;-66
2022/01/10 11:31:36;;;;;;;65.13;8.43;;;;;;;;;;5098781;28;20510;-66
2022/01/10 11:34:03;;;;;;;69.70;9.17;;;;;;;;;;5098203;28;20443;-66
2022/01/10 11:36:30;;;;;;;65.87;8.47;;;;;;;;;;5098408;28;20823;-66
2022/01/10 11:38:58;;;;;;;69.80;9.93;;;;;;;;;;5097756;28;20454;-66
2022/01/10 11:41:26;;;;;;;69.67;9.60;;;;;;;;;;5098182;28;20468;-66
2022/01/10 11:44:02;;;;;;;70.53;9.00;;;;;;;;;;5098684;28;20501;-66
2022/01/10 11:46:34;;;;;;;66.60;8.63;;;;;;;;;;5097491;28;20451;-66
2022/01/10 11:49:04;;;;;;;68.23;10.57;;;;;;;;;;5097842;28;20575;-66
2022/01/10 11:51:34;;;;;;;66.20;8.80;;;;;;;;;;5097506;28;20501;-66
2022/01/10 11:54:11;;;;;;;65.27;8.73;;;;;;;;;;5098107;28;20434;-68
2022/01/10 11:56:39;;;;;;;66.70;9.57;;;;;;;;;;5098107;28;20478;-66
2022/01/10 11:59:08;;;;;;;68.53;9.50;;;;;;;;;;5097514;28;20446;-66
2022/01/10 12:01:37;;;;;;;70.97;10.70;;;;;;;;;;5098504;28;20486;-66
2022/01/10 12:04:06;;;;;;;65.43;8.90;;;;;;;;;;5097549;28;20497;-67
2022/01/10 12:06:33;;;;;;;68.13;8.97;;;;;;;;;;5097963;28;20458;-67
2022/01/10 12:09:01;;;;;;;69.00;8.60;;;;;;;;;;5097651;28;20554;-67
2022/01/10 12:11:28;;;;;;;69.43;10.20;;;;;;;;;;5097412;28;20515;-66
2022/01/10 12:13:58;;;;;;;74.27;9.23;;;;;;;;;;5097597;28;20454;-67
2022/01/10 12:16:26;;;;;;;69.27;9.70;;;;;;;;;;5097967;28;20451;-66
2022/01/10 12:18:53;;;;;;;69.80;9.27;;;;;;;;;;5097088;28;20476;-66
2022/01/10 12:21:22;;;;;;;66.10;9.23;;;;;;;;;;5096842;28;20550;-66
2022/01/10 12:23:52;;;;;;;66.37;9.00;;;;;;;;;;5096737;28;20539;-66
2022/01/10 12:26:20;;;;;;;73.83;11.57;;;;;;;;;;5096853;28;20454;-66
2022/01/10 12:28:49;;;;;;;70.40;10.27;;;;;;;;;;5096526;28;20546;-66
2022/01/10 12:31:17;;;;;;;72.13;11.73;;;;;;;;;;5096103;28;20489;-66
2022/01/10 12:33:44;;;;;;;75.87;11.63;;;;;;;;;;5096276;28;20244;-66
2022/01/10 12:36:12;;;;;;;68.70;10.37;;;;;;;;;;5096478;28;20451;-66
2022/01/10 12:38:42;;;;;;;75.60;11.40;;;;;;;;;;5098493;28;20478;-66
2022/01/10 12:41:10;;;;;;;70.40;11.90;;;;;;;;;;5098246;28;20498;-66
2022/01/10 12:43:37;;;;;;;76.80;12.40;;;;;;;;;;5097465;28;20534;-67
2022/01/10 12:46:04;;;;;;;76.50;11.53;;;;;;;;;;5098038;28;20537;-66
2022/01/10 12:48:31;;;;;;;72.03;11.10;;;;;;;;;;5097169;28;20498;-66
2022/01/10 12:50:58;;;;;;;77.87;12.80;;;;;;;;;;5097462;28;21086;-67
2022/01/10 12:53:25;;;;;;;77.27;12.03;;;;;;;;;;5097487;28;20534;-66
2022/01/10 12:55:54;;;;;;;70.67;11.50;;;;;;;;;;5097803;28;20447;-67
2022/01/10 12:58:22;;;;;;;76.63;13.67;;;;;;;;;;5097025;28;20450;-67
2022/01/10 13:00:49;;;;;;;68.77;10.70;;;;;;;;;;5109071;28;20446;-66
2022/01/10 13:03:17;;;;;;;73.33;11.20;;;;;;;;;;5117721;28;20548;-65
2022/01/10 13:05:45;;;;;;;71.00;9.80;;;;;;;;;;5116388;28;20442;-65
2022/01/10 13:08:12;;;;;;;71.40;9.77;;;;;;;;;;5115211;28;20651;-66
2022/01/10 13:10:39;;;;;;;72.30;11.77;;;;;;;;;;5114169;28;21100;-69
2022/01/10 13:13:11;;;;;;;73.37;11.03;;;;;;;;;;5116026;28;20504;-66
2022/01/10 13:15:41;;;;;;;74.33;12.30;;;;;;;;;;5117286;28;20529;-67
2022/01/10 13:18:10;;;;;;;70.20;11.47;;;;;;;;;;5114398;28;20454;-66
2022/01/10 13:20:39;;;;;;;69.43;10.73;;;;;;;;;;5114504;28;20465;-66
2022/01/10 13:23:07;;;;;;;69.90;10.63;;;;;;;;;;5114811;28;20466;-66
2022/01/10 13:25:35;;;;;;;73.87;12.10;;;;;;;;;;5114008;28;20452;-67
2022/01/10 13:28:05;;;;;;;71.00;10.83;;;;;;;;;;5113343;28;20457;-67
2022/01/10 13:30:33;;;;;;;71.23;11.33;;;;;;;;;;5113825;28;20481;-66
2022/01/10 13:33:01;;;;;;;67.30;10.27;;;;;;;;;;5114530;28;20531;-67
2022/01/10 13:35:31;;;;;;;76.43;11.07;;;;;;;;;;5115072;28;20453;-67
2022/01/10 13:37:59;;;;;;;68.50;10.43;;;;;;;;;;5113696;28;20484;-66
2022/01/10 13:40:27;;;;;;;71.30;8.47;;;;;;;;;;5113739;28;20449;-67
2022/01/10 13:43:03;;;;;;;70.37;10.77;;;;;;;;;;5114131;28;20472;-68
2022/01/10 13:45:41;;;;;;;72.50;10.17;;;;;;;;;;5113792;28;20446;-68
2022/01/10 13:48:08;;;;;;;66.33;8.93;;;;;;;;;;5113313;28;20828;-66
2022/01/10 13:50:36;;;;;;;82.60;10.57;;;;;;;;;;5113260;28;20482;-65
2022/01/10 13:53:07;;;;;;;74.33;10.00;;;;;;;;;;5114377;28;20477;-66
2022/01/10 13:55:36;;;;;;;68.27;9.50;;;;;;;;;;5113166;28;20451;-67
2022/01/10 13:58:04;;;;;;;70.63;10.87;;;;;;;;;;5110961;28;20536;-66
2022/01/10 14:00:31;;;;;;;70.43;10.43;;;;;;;;;;5112736;28;20442;-66
2022/01/10 14:03:00;;;;;;;72.90;9.40;;;;;;;;;;5112451;27;20502;-66
2022/01/10 14:05:28;;;;;;;71.30;10.00;;;;;;;;;;5112483;28;20450;-66
2022/01/10 14:07:56;;;;;;;67.93;9.27;;;;;;;;;;5112230;28;20544;-68
2022/01/10 14:10:24;;;;;;;69.77;9.57;;;;;;;;;;5112629;28;20478;-67
2022/01/10 14:12:52;;;;;;;70.70;9.60;;;;;;;;;;5112419;28;20520;-67
2022/01/10 14:15:22;;;;;;;69.83;9.13;;;;;;;;;;5112414;28;20452;-67
2022/01/10 14:17:50;;;;;;;73.50;10.77;;;;;;;;;;5111858;28;20445;-66
2022/01/10 14:20:18;;;;;;;70.37;9.67;;;;;;;;;;5112920;28;20478;-67
2022/01/10 14:22:47;;;;;;;73.07;10.27;;;;;;;;;;5112279;28;20462;-67
2022/01/10 14:25:16;;;;;;;73.97;10.50;;;;;;;;;;5112587;28;20479;-67
2022/01/10 14:27:44;;;;;;;70.80;9.77;;;;;;;;;;5112050;28;20449;-67
2022/01/10 14:30:11;;;;;;;69.43;10.07;;;;;;;;;;5111270;28;20480;-67
2022/01/10 14:32:38;;;;;;;72.43;10.60;;;;;;;;;;5113777;28;20236;-67
2022/01/10 14:35:06;;;;;;;70.00;10.60;;;;;;;;;;5114562;28;20470;-67
2022/01/10 14:37:35;;;;;;;69.97;9.90;;;;;;;;;;5114204;28;20473;-67